createdAt,value
2019-01-23T00:00:44.699Z,35.46
2019-01-23T00:06:39.690Z,33.88
2019-01-23T00:12:34.695Z,33.46
2019-01-23T00:18:29.714Z,35.14
2019-01-23T00:24:24.699Z,32.4
2019-01-23T00:30:19.715Z,34.28
2019-01-23T00:36:14.709Z,42.3
2019-01-23T00:42:09.731Z,35.89
2019-01-23T00:48:04.707Z,35.24
2019-01-23T00:53:59.707Z,37.53
2019-01-23T00:59:54.732Z,36.01
2019-01-23T01:05:49.737Z,42.44
2019-01-23T01:11:44.736Z,36.42
2019-01-23T01:17:39.762Z,35.76
2019-01-23T01:23:34.746Z,93.39
2019-01-23T01:29:29.730Z,34.38
2019-01-23T01:35:24.744Z,40.76
2019-01-23T01:41:19.790Z,34.05
2019-01-23T01:47:14.757Z,36.15
2019-01-23T01:53:09.835Z,39.1
2019-01-23T01:59:04.757Z,35.35
2019-01-23T02:04:59.768Z,37.54
2019-01-23T02:10:54.767Z,35
2019-01-23T02:16:49.770Z,35.19
2019-01-23T02:22:44.767Z,37.95
2019-01-23T02:28:39.800Z,35.41
2019-01-23T02:34:34.782Z,36.1
2019-01-23T02:40:29.804Z,37.5
2019-01-23T02:46:24.754Z,31.16
2019-01-23T02:52:19.833Z,33.23
2019-01-23T02:58:14.793Z,36.71
2019-01-23T03:04:09.796Z,36.73
2019-01-23T03:10:04.780Z,38.21
2019-01-23T03:15:59.793Z,36.48
2019-01-23T03:21:54.780Z,37.45
2019-01-23T03:27:49.812Z,40.71
2019-01-23T03:33:44.867Z,33.34
2019-01-23T03:39:39.807Z,37.15
2019-01-23T03:45:34.792Z,38.15
2019-01-23T03:51:29.822Z,43.16
2019-01-23T03:57:24.812Z,39.36
2019-01-23T04:03:19.825Z,44.25
2019-01-23T04:09:14.823Z,41.91
2019-01-23T04:15:09.806Z,44.92
2019-01-23T04:21:04.809Z,45.38
2019-01-23T04:26:59.826Z,45.05
2019-01-23T04:32:54.857Z,45.94
2019-01-23T04:38:49.822Z,45.22
2019-01-23T04:44:44.804Z,48.14
2019-01-23T04:50:39.821Z,49.22
2019-01-23T04:56:34.832Z,48.69
2019-01-23T05:02:29.866Z,54.38
2019-01-23T05:08:24.816Z,46.1
2019-01-23T05:14:19.844Z,51.26
2019-01-23T05:20:14.843Z,50.63
2019-01-23T05:26:09.832Z,50.11
2019-01-23T05:32:04.855Z,47.46
2019-01-23T05:37:59.842Z,52.61
2019-01-23T05:43:54.898Z,55.94
2019-01-23T05:49:49.915Z,44.7
2019-01-23T05:55:44.883Z,42.32
2019-01-23T06:01:39.851Z,47.06
2019-01-23T06:07:34.855Z,45.72
2019-01-23T06:13:29.846Z,42.49
2019-01-23T06:19:24.869Z,41.93
2019-01-23T06:25:19.882Z,41.89
2019-01-23T06:31:14.927Z,43.92
2019-01-23T06:37:09.892Z,42.92
2019-01-23T06:43:04.903Z,46.2
2019-01-23T06:48:59.888Z,49.38
2019-01-23T06:54:54.886Z,46.06
2019-01-23T07:00:49.893Z,38.72
2019-01-23T07:06:44.887Z,45.47
2019-01-23T07:12:39.895Z,47.4
2019-01-23T07:18:34.881Z,48.33
2019-01-23T07:24:29.894Z,54.87
2019-01-23T07:30:24.956Z,50.36
2019-01-23T07:36:19.895Z,51.95
2019-01-23T07:42:14.899Z,57.71
2019-01-23T07:48:09.924Z,53.47
2019-01-23T07:54:04.906Z,55.56
2019-01-23T07:59:59.931Z,58.9
2019-01-23T08:05:54.924Z,54.33
2019-01-23T08:11:49.902Z,71.01
2019-01-23T08:17:45.004Z,63.21
2019-01-23T08:23:39.933Z,61.41
2019-01-23T08:29:34.918Z,65.88
2019-01-23T08:35:29.920Z,60.56
2019-01-23T08:41:24.927Z,59.73
2019-01-23T08:47:20.001Z,55.16
2019-01-23T08:53:14.973Z,53.64
2019-01-23T08:59:09.928Z,58.9
2019-01-23T09:05:04.946Z,63.17
2019-01-23T09:10:59.952Z,58.48
2019-01-23T09:16:54.949Z,65.6
2019-01-23T09:22:49.972Z,55.61
2019-01-23T09:28:44.959Z,58.32
2019-01-23T09:34:39.940Z,61.12
2019-01-23T09:40:34.954Z,54.59
2019-01-23T09:46:29.992Z,57.79
2019-01-23T09:52:24.970Z,59.23
2019-01-23T09:58:19.973Z,62.28
2019-01-23T10:04:14.964Z,58.55
2019-01-23T10:10:09.955Z,54.17
2019-01-23T10:16:04.979Z,62.22
2019-01-23T10:22:00.027Z,58.07
2019-01-23T10:27:54.987Z,59.13
2019-01-23T10:33:49.975Z,63.99
2019-01-23T10:39:44.992Z,61.89
2019-01-23T10:45:39.975Z,60.44
2019-01-23T10:51:34.982Z,66.07
2019-01-23T10:57:30.012Z,60.82
2019-01-23T11:03:25.019Z,59.69
2019-01-23T11:09:20.020Z,60.35
2019-01-23T11:15:14.999Z,57.72
2019-01-23T11:21:09.994Z,65.22
2019-01-23T11:27:04.989Z,55.42
2019-01-23T11:33:00.007Z,64.69
2019-01-23T11:38:55.014Z,55.98
2019-01-23T11:44:50.058Z,59.9
2019-01-23T11:50:45.024Z,60.49
2019-01-23T11:56:40.018Z,55.67
2019-01-23T12:02:35.029Z,54.3
2019-01-23T12:08:30.044Z,52.12
2019-01-23T12:14:25.025Z,57.22
2019-01-23T12:20:20.024Z,54.52
2019-01-23T12:26:15.070Z,53.18
2019-01-23T12:32:10.027Z,47.1
2019-01-23T12:38:05.072Z,45.66
2019-01-23T12:44:00.047Z,46.4
2019-01-23T12:49:55.037Z,47.52
2019-01-23T12:55:50.051Z,43.93
2019-01-23T13:01:45.042Z,45.03
2019-01-23T13:07:40.041Z,45.66
2019-01-23T13:13:35.081Z,38.68
2019-01-23T13:19:30.051Z,34.37
2019-01-23T13:25:25.056Z,60.64
2019-01-23T13:31:20.062Z,47.45
2019-01-23T13:37:15.080Z,42.11
2019-01-23T13:43:10.058Z,40.28
2019-01-23T13:49:05.078Z,38.16
2019-01-23T13:55:00.255Z,43.58
2019-01-23T14:00:55.123Z,47.53
2019-01-23T14:06:50.062Z,46.33
2019-01-23T14:12:45.099Z,52.73
2019-01-23T14:18:40.091Z,48.35
2019-01-23T14:24:35.122Z,42.77
2019-01-23T14:30:30.101Z,41.95
2019-01-23T14:36:25.098Z,38.77
2019-01-23T14:42:20.108Z,44.49
2019-01-23T14:48:15.105Z,39.47
2019-01-23T14:54:10.187Z,44.83
2019-01-23T15:00:05.089Z,42.81
2019-01-23T15:06:00.107Z,46.17
2019-01-23T15:11:55.113Z,51.79
2019-01-23T15:17:50.114Z,46.36
2019-01-23T15:23:45.154Z,48.64
2019-01-23T15:29:40.123Z,42.56
2019-01-23T15:35:35.120Z,35.15
2019-01-23T15:41:30.148Z,42.29
2019-01-23T15:47:25.130Z,56.09
2019-01-23T15:53:20.154Z,48.23
2019-01-23T15:59:15.135Z,49.63
2019-01-23T16:05:10.148Z,47.92
2019-01-23T16:11:05.136Z,47.83
2019-01-23T16:17:00.147Z,10.9
2019-01-23T16:22:55.183Z,7.7
2019-01-23T16:28:50.159Z,26.98
2019-01-23T16:34:45.165Z,4.94
2019-01-23T16:40:40.175Z,4.85
2019-01-23T16:46:35.183Z,13.48
2019-01-23T16:52:30.172Z,5.24
2019-01-23T16:58:25.158Z,4.59
2019-01-23T17:04:20.192Z,4.37
2019-01-23T17:10:15.223Z,5.71
2019-01-23T17:16:10.181Z,4.52
2019-01-23T17:22:05.202Z,3.74
2019-01-23T17:28:00.181Z,12.43
2019-01-23T17:33:55.184Z,11.87
2019-01-23T17:39:50.211Z,4.55
2019-01-23T17:45:45.182Z,3.75
2019-01-23T17:51:40.173Z,3.25
2019-01-23T17:57:35.254Z,3.63
2019-01-23T18:03:30.187Z,6.96
2019-01-23T18:09:25.238Z,2.63
2019-01-23T18:15:20.210Z,4.28
2019-01-23T18:21:15.213Z,3.42
2019-01-23T18:27:10.236Z,2.98
2019-01-23T18:33:05.213Z,13.55
2019-01-23T18:39:00.279Z,6.29
2019-01-23T18:44:55.202Z,1.75
2019-01-23T18:50:50.220Z,1.76
2019-01-23T18:56:45.223Z,1.13
2019-01-23T19:02:40.226Z,1.6
2019-01-23T19:08:35.246Z,1.97
2019-01-23T19:14:30.265Z,1.67
2019-01-23T19:20:25.243Z,1.8
2019-01-23T19:26:20.259Z,1.16
2019-01-23T19:38:10.276Z,1.63
2019-01-23T19:44:05.287Z,1.8
2019-01-23T19:50:00.310Z,1.55
2019-01-23T19:55:55.960Z,1.44
2019-01-23T20:01:50.249Z,1.81
2019-01-23T20:07:45.300Z,2.17
2019-01-23T20:13:40.283Z,1.42
2019-01-23T20:19:35.266Z,1.13
2019-01-23T20:25:30.443Z,1.17
2019-01-23T20:31:25.282Z,1.95
2019-01-23T20:37:23.409Z,1.32
2019-01-23T20:43:15.298Z,0.93
2019-01-23T20:49:10.272Z,1.1
2019-01-23T20:55:05.289Z,0.96
2019-01-23T21:01:00.264Z,1.19
2019-01-23T21:06:55.280Z,1.3
2019-01-23T21:12:50.275Z,1.43
2019-01-23T21:18:45.298Z,2.73
2019-01-23T21:24:42.838Z,1.73
2019-01-23T21:30:40.615Z,0.98
2019-01-23T21:36:30.417Z,3.27
2019-01-23T21:42:25.299Z,5.82
2019-01-23T21:48:20.997Z,10.38
2019-01-23T21:54:15.316Z,6.2
2019-01-23T22:00:10.398Z,2.73
2019-01-23T22:06:05.296Z,0.9
2019-01-23T22:12:00.349Z,0.85
2019-01-23T22:17:55.318Z,1.1
2019-01-23T22:23:50.319Z,0.58
2019-01-23T22:29:45.334Z,0.61
2019-01-23T22:35:40.316Z,0.5
2019-01-23T22:41:35.320Z,0.58
2019-01-23T22:47:30.340Z,0.67
2019-01-23T22:53:25.332Z,0.59
2019-01-23T22:59:20.359Z,0.65
2019-01-23T23:05:15.324Z,0.5
2019-01-23T23:11:10.356Z,0.58
2019-01-23T23:17:05.353Z,0.6
2019-01-23T23:23:00.410Z,0.68
2019-01-23T23:28:55.354Z,0.5
2019-01-23T23:34:50.342Z,0.53
2019-01-23T23:40:45.377Z,0.7
2019-01-23T23:46:40.360Z,0.56
2019-01-23T23:52:35.385Z,0.69
2019-01-23T23:58:30.358Z,0.63
